createdAt,value
2017-06-03T00:02:00.811Z,64.40
2017-06-03T00:04:28.325Z,64.40
2017-06-03T00:06:55.899Z,63.90
2017-06-03T00:09:23.427Z,65.00
2017-06-03T00:11:51.710Z,67.40
2017-06-03T00:14:19.291Z,67.30
2017-06-03T00:16:46.819Z,67.70
2017-06-03T00:19:14.375Z,67.60
2017-06-03T00:21:42.725Z,69.00
2017-06-03T00:24:10.269Z,69.10
2017-06-03T00:26:38.568Z,70.80
2017-06-03T00:29:06.151Z,70.60
2017-06-03T00:31:34.469Z,71.10
2017-06-03T00:34:01.991Z,71.10
2017-06-03T00:36:29.559Z,71.60
2017-06-03T00:38:57.083Z,71.30
2017-06-03T00:41:25.373Z,72.00
2017-06-03T00:43:52.939Z,72.00
2017-06-03T00:46:20.464Z,71.80
2017-06-03T00:48:48.035Z,71.80
2017-06-03T00:51:16.328Z,73.90
2017-06-03T00:53:43.867Z,73.90
2017-06-03T00:56:11.439Z,73.10
2017-06-03T00:58:38.983Z,73.40
2017-06-03T01:01:07.339Z,72.20
2017-06-03T01:03:34.863Z,72.10
2017-06-03T01:06:02.403Z,72.40
2017-06-03T01:08:29.971Z,71.30
2017-06-03T01:10:58.255Z,71.90
2017-06-03T01:13:25.775Z,71.90
2017-06-03T01:15:53.343Z,72.30
2017-06-03T01:18:20.877Z,72.50
2017-06-03T01:20:49.225Z,73.20
2017-06-03T01:23:17.527Z,72.40
2017-06-03T01:25:45.052Z,72.40
2017-06-03T01:28:12.681Z,71.90
2017-06-03T01:30:41.027Z,72.70
2017-06-03T01:33:08.578Z,72.70
2017-06-03T01:35:36.107Z,72.50
2017-06-03T01:38:03.688Z,72.00
2017-06-03T01:40:31.991Z,73.30
2017-06-03T01:42:59.525Z,73.30
2017-06-03T01:45:27.108Z,73.80
2017-06-03T01:47:55.402Z,72.20
2017-06-03T01:50:23.715Z,72.20
2017-06-03T01:52:51.299Z,72.20
2017-06-03T01:55:18.825Z,73.20
2017-06-03T01:57:46.354Z,72.70
2017-06-03T02:00:14.704Z,72.80
2017-06-03T02:02:42.244Z,72.80
2017-06-03T02:05:09.774Z,72.90
2017-06-03T02:07:37.364Z,73.40
2017-06-03T02:10:05.650Z,73.20
2017-06-03T02:12:33.187Z,73.20
2017-06-03T02:15:00.741Z,74.10
2017-06-03T02:17:29.037Z,73.70
2017-06-03T02:19:57.376Z,72.80
2017-06-03T02:22:24.904Z,72.70
2017-06-03T02:24:52.428Z,74.00
2017-06-03T02:27:20.021Z,74.70
2017-06-03T02:29:48.318Z,73.20
2017-06-03T02:32:15.852Z,73.20
2017-06-03T02:34:43.432Z,73.40
2017-06-03T02:37:10.966Z,72.00
2017-06-03T02:39:38.518Z,73.10
2017-06-03T02:42:06.881Z,72.40
2017-06-03T02:44:34.391Z,72.20
2017-06-03T02:47:01.914Z,71.40
2017-06-03T02:49:29.517Z,70.30
2017-06-03T02:51:57.814Z,71.20
2017-06-03T02:54:25.357Z,71.30
2017-06-03T02:56:53.741Z,71.10
2017-06-03T02:59:21.284Z,71.20
2017-06-03T03:01:49.577Z,71.90
2017-06-03T03:04:17.924Z,72.00
2017-06-03T03:06:45.438Z,72.00
2017-06-03T03:09:12.983Z,71.50
2017-06-03T03:11:41.319Z,72.90
2017-06-03T03:14:08.853Z,72.90
2017-06-03T03:16:36.376Z,72.20
2017-06-03T03:19:03.964Z,71.90
2017-06-03T03:21:32.264Z,72.80
2017-06-03T03:23:59.796Z,72.80
2017-06-03T03:26:27.378Z,71.70
2017-06-03T03:28:55.658Z,72.00
2017-06-03T03:31:23.937Z,72.90
2017-06-03T03:33:51.522Z,72.80
2017-06-03T03:36:19.070Z,72.90
2017-06-03T03:38:46.589Z,73.40
2017-06-03T03:41:14.919Z,74.30
2017-06-03T03:43:42.503Z,74.30
2017-06-03T03:46:10.063Z,74.10
2017-06-03T03:48:37.585Z,75.30
2017-06-03T03:51:05.920Z,74.60
2017-06-03T03:53:33.433Z,74.60
2017-06-03T03:56:01.710Z,72.90
2017-06-03T03:58:29.275Z,72.80
2017-06-03T04:00:57.569Z,71.90
2017-06-03T04:03:25.132Z,71.90
2017-06-03T04:05:52.671Z,73.70
2017-06-03T04:08:20.194Z,75.00
2017-06-03T04:10:48.532Z,75.30
2017-06-03T04:13:16.064Z,75.20
2017-06-03T04:15:43.631Z,75.60
2017-06-03T04:18:11.929Z,75.00
2017-06-03T04:20:40.215Z,75.90
2017-06-03T04:23:07.810Z,75.90
2017-06-03T04:25:35.361Z,75.50
2017-06-03T04:28:02.886Z,75.60
2017-06-03T04:30:31.222Z,75.70
2017-06-03T04:32:58.736Z,75.70
2017-06-03T04:35:26.250Z,73.30
2017-06-03T04:37:53.809Z,72.20
2017-06-03T04:40:22.128Z,74.50
2017-06-03T04:42:49.683Z,74.50
2017-06-03T04:45:17.225Z,75.90
2017-06-03T04:47:44.744Z,76.20
2017-06-03T04:50:13.075Z,75.00
2017-06-03T04:52:41.379Z,73.90
2017-06-03T04:55:08.969Z,73.70
2017-06-03T04:57:36.504Z,73.20
2017-06-03T05:00:04.822Z,76.00
2017-06-03T05:02:32.361Z,75.90
2017-06-03T05:04:59.962Z,79.50
2017-06-03T05:07:27.496Z,79.60
2017-06-03T05:09:55.806Z,80.20
2017-06-03T05:12:23.399Z,80.20
2017-06-03T05:14:50.937Z,79.20
2017-06-03T05:17:19.237Z,80.20
2017-06-03T05:19:47.567Z,80.00
2017-06-03T05:22:15.850Z,80.80
2017-06-03T05:24:43.395Z,80.70
2017-06-03T05:27:10.989Z,80.20
2017-06-03T05:29:38.537Z,79.80
2017-06-03T05:32:06.828Z,78.20
2017-06-03T05:34:34.400Z,78.10
2017-06-03T05:37:01.930Z,78.60
2017-06-03T05:39:29.490Z,79.00
2017-06-03T05:41:57.825Z,78.70
2017-06-03T05:44:25.383Z,77.90
2017-06-03T05:46:52.893Z,79.40
2017-06-03T05:49:20.451Z,78.40
2017-06-03T05:51:48.764Z,77.40
2017-06-03T05:54:16.296Z,77.30
2017-06-03T05:56:43.859Z,78.60
2017-06-03T05:59:12.151Z,77.60
2017-06-03T06:01:40.503Z,77.10
2017-06-03T06:04:08.789Z,77.40
2017-06-03T06:06:36.309Z,77.40
2017-06-03T06:09:04.643Z,77.60
2017-06-03T06:11:32.941Z,78.60
2017-06-03T06:14:00.484Z,78.60
2017-06-03T06:16:28.118Z,78.30
2017-06-03T06:18:56.685Z,77.50
2017-06-03T06:21:24.992Z,76.90
2017-06-03T06:23:53.320Z,76.80
2017-06-03T06:26:20.855Z,76.80
2017-06-03T06:28:48.390Z,77.80
2017-06-03T06:31:16.735Z,77.30
2017-06-03T06:33:45.047Z,77.90
2017-06-03T06:36:12.603Z,77.90
2017-06-03T06:38:40.150Z,79.40
2017-06-03T06:41:08.458Z,79.50
2017-06-03T06:43:36.812Z,78.40
2017-06-03T06:46:04.332Z,78.40
2017-06-03T06:48:31.887Z,76.80
2017-06-03T06:51:00.229Z,76.00
2017-06-03T06:53:32.387Z,76.00
2017-06-03T06:56:00.409Z,76.00
2017-06-03T06:58:27.956Z,76.00
2017-06-03T07:00:56.257Z,75.30
2017-06-03T07:03:23.825Z,75.20
2017-06-03T07:05:51.351Z,74.70
2017-06-03T07:08:18.903Z,72.80
2017-06-03T07:10:47.230Z,72.80
2017-06-03T07:13:14.753Z,72.80
2017-06-03T07:15:42.284Z,72.90
2017-06-03T07:18:09.877Z,72.40
2017-06-03T07:20:38.172Z,72.40
2017-06-03T07:23:05.694Z,72.40
2017-06-03T07:25:33.257Z,72.80
2017-06-03T07:28:00.825Z,71.80
2017-06-03T07:30:29.131Z,70.10
2017-06-03T07:32:56.703Z,70.00
2017-06-03T07:35:24.235Z,72.60
2017-06-03T07:37:51.748Z,69.40
2017-06-03T07:40:20.077Z,66.70
2017-06-03T07:42:47.630Z,66.70
2017-06-03T07:45:15.932Z,68.30
2017-06-03T07:47:43.492Z,68.30
2017-06-03T07:50:11.796Z,65.90
2017-06-03T07:52:39.327Z,65.90
2017-06-03T07:55:07.687Z,66.00
2017-06-03T07:57:35.239Z,66.00
2017-06-03T08:00:03.553Z,63.90
2017-06-03T08:02:31.149Z,63.90
2017-06-03T08:04:58.742Z,64.40
2017-06-03T08:07:26.267Z,64.80
2017-06-03T08:09:54.549Z,64.20
2017-06-03T08:12:22.875Z,63.00
2017-06-03T08:14:50.392Z,62.90
2017-06-03T08:17:17.970Z,62.20
2017-06-03T08:19:45.476Z,62.70
2017-06-03T08:22:13.764Z,62.00
2017-06-03T08:24:41.314Z,62.00
2017-06-03T08:27:08.832Z,62.50
2017-06-03T08:29:36.386Z,61.80
2017-06-03T08:32:04.683Z,61.40
2017-06-03T08:34:32.201Z,61.50
2017-06-03T08:36:59.791Z,60.90
2017-06-03T08:39:27.296Z,59.30
2017-06-03T08:41:55.602Z,57.20
2017-06-03T08:44:23.191Z,57.20
2017-06-03T08:46:50.722Z,56.80
2017-06-03T08:49:19.015Z,57.30
2017-06-03T08:51:47.350Z,56.70
2017-06-03T08:54:15.630Z,57.40
2017-06-03T08:56:43.905Z,57.30
2017-06-03T08:59:11.514Z,57.20
2017-06-03T09:01:39.894Z,56.20
2017-06-03T09:04:07.414Z,56.20
2017-06-03T09:06:36.625Z,56.90
2017-06-03T09:09:04.194Z,58.20
2017-06-03T09:11:32.558Z,56.40
2017-06-03T09:14:00.113Z,56.40
2017-06-03T09:16:27.639Z,58.10
2017-06-03T09:18:55.211Z,56.90
2017-06-03T09:21:23.514Z,55.40
2017-06-03T09:23:51.848Z,57.10
2017-06-03T09:26:19.435Z,57.10
2017-06-03T09:28:46.953Z,57.40
2017-06-03T09:31:15.260Z,56.00
2017-06-03T09:33:42.857Z,56.00
2017-06-03T09:36:10.428Z,55.80
2017-06-03T09:38:37.958Z,55.20
2017-06-03T09:41:06.312Z,54.50
2017-06-03T09:43:33.836Z,54.50
2017-06-03T09:46:02.129Z,54.00
2017-06-03T09:48:30.464Z,52.30
2017-06-03T09:50:58.759Z,53.90
2017-06-03T09:53:26.295Z,53.90
2017-06-03T09:55:54.467Z,54.20
2017-06-03T09:58:22.013Z,54.90
2017-06-03T10:00:50.324Z,55.20
2017-06-03T10:03:17.900Z,55.10
2017-06-03T10:05:45.442Z,53.50
2017-06-03T10:08:12.953Z,52.60
2017-06-03T10:10:41.289Z,53.20
2017-06-03T10:13:08.825Z,53.20
2017-06-03T10:15:36.355Z,52.60
2017-06-03T10:18:03.927Z,51.40
2017-06-03T10:20:32.256Z,53.00
2017-06-03T10:22:59.804Z,53.00
2017-06-03T10:25:28.172Z,53.30
2017-06-03T10:27:55.724Z,53.30
2017-06-03T10:30:24.024Z,52.60
2017-06-03T10:32:51.581Z,52.60
2017-06-03T10:35:25.005Z,52.00
2017-06-03T10:37:52.585Z,51.70
2017-06-03T10:40:20.889Z,50.50
2017-06-03T10:42:48.423Z,50.40
2017-06-03T10:45:16.012Z,51.20
2017-06-03T10:47:43.568Z,51.40
2017-06-03T10:50:11.901Z,50.40
2017-06-03T10:52:39.429Z,49.80
2017-06-03T10:55:06.959Z,49.70
2017-06-03T10:57:34.520Z,51.30
2017-06-03T11:00:02.824Z,51.10
2017-06-03T11:02:30.366Z,51.10
2017-06-03T11:04:58.716Z,51.30
2017-06-03T11:07:26.280Z,51.30
2017-06-03T11:09:54.572Z,51.00
2017-06-03T11:12:22.119Z,51.00
2017-06-03T11:14:49.665Z,51.20
2017-06-03T11:17:17.193Z,50.30
2017-06-03T11:19:45.287Z,49.60
2017-06-03T11:22:13.628Z,51.30
2017-06-03T11:24:41.175Z,51.30
2017-06-03T11:27:08.709Z,49.30
2017-06-03T11:29:36.293Z,50.10
2017-06-03T11:32:04.597Z,49.80
2017-06-03T11:34:32.892Z,50.50
2017-06-03T11:37:00.450Z,50.50
2017-06-03T11:39:28.002Z,50.00
2017-06-03T11:41:56.295Z,50.00
2017-06-03T11:44:23.899Z,50.00
2017-06-03T11:46:51.437Z,49.60
2017-06-03T11:49:18.968Z,49.20
2017-06-03T11:51:47.327Z,51.90
2017-06-03T11:54:14.850Z,51.90
2017-06-03T11:56:42.398Z,50.80
2017-06-03T11:59:10.752Z,51.00
2017-06-03T12:01:39.064Z,54.30
2017-06-03T12:04:06.581Z,54.40
2017-06-03T12:06:34.177Z,55.70
2017-06-03T12:09:01.711Z,52.70
2017-06-03T12:11:30.008Z,55.50
2017-06-03T12:13:58.370Z,55.00
2017-06-03T12:16:26.684Z,52.90
2017-06-03T12:18:54.193Z,52.90
2017-06-03T12:21:22.492Z,52.40
2017-06-03T12:23:50.075Z,52.40
2017-06-03T12:26:18.393Z,53.20
2017-06-03T12:28:45.946Z,53.20
2017-06-03T12:31:14.297Z,54.10
2017-06-03T12:33:41.827Z,54.10
2017-06-03T12:36:10.141Z,54.30
2017-06-03T12:38:37.707Z,54.20
2017-06-03T12:41:05.998Z,54.00
2017-06-03T12:43:33.605Z,54.00
2017-06-03T12:46:01.144Z,54.80
2017-06-03T12:48:28.681Z,54.70
2017-06-03T12:50:57.003Z,55.60
2017-06-03T12:53:24.532Z,55.50
2017-06-03T12:55:52.065Z,55.10
2017-06-03T12:58:19.653Z,55.10
2017-06-03T13:00:47.972Z,54.90
2017-06-03T13:03:15.490Z,54.30
2017-06-03T13:05:43.074Z,55.90
2017-06-03T13:08:11.369Z,57.60
2017-06-03T13:10:39.651Z,58.00
2017-06-03T13:13:07.268Z,58.10
2017-06-03T13:15:34.837Z,58.40
2017-06-03T13:18:02.425Z,58.60
2017-06-03T13:20:30.920Z,59.20
2017-06-03T13:23:02.093Z,59.10
2017-06-03T13:30:59.140Z,56.90
2017-06-03T13:33:56.481Z,56.80
2017-06-03T13:36:45.121Z,56.90
2017-06-03T13:42:22.617Z,56.80
2017-06-03T13:47:45.424Z,57.30
2017-06-03T13:50:13.948Z,55.10
2017-06-03T13:52:44.135Z,55.10
2017-06-03T13:55:11.814Z,55.50
2017-06-03T13:57:41.221Z,55.80
2017-06-03T14:00:34.353Z,56.20
2017-06-03T14:03:06.053Z,55.60
2017-06-03T14:05:36.380Z,56.70
2017-06-03T14:08:04.235Z,56.70
2017-06-03T14:10:32.587Z,55.60
2017-06-03T14:13:00.211Z,55.60
2017-06-03T14:15:27.775Z,55.80
2017-06-03T14:17:55.312Z,56.30
2017-06-03T14:20:23.675Z,56.90
2017-06-03T14:22:51.223Z,56.90
2017-06-03T14:25:18.782Z,56.30
2017-06-03T14:27:46.406Z,56.30
2017-06-03T14:30:14.736Z,58.10
2017-06-03T14:32:42.275Z,58.10
2017-06-03T14:35:09.850Z,60.60
2017-06-03T14:37:37.369Z,64.30
2017-06-03T14:40:05.680Z,67.90
2017-06-03T14:42:33.278Z,67.90
2017-06-03T14:45:01.579Z,71.40
2017-06-03T14:47:29.127Z,71.30
2017-06-03T14:49:57.487Z,73.40
2017-06-03T14:52:25.807Z,72.50
2017-06-03T14:54:53.341Z,72.50
2017-06-03T14:57:20.917Z,71.60
2017-06-03T14:59:49.213Z,69.50
2017-06-03T15:02:16.757Z,69.40
2017-06-03T15:04:44.351Z,66.80
2017-06-03T15:07:11.885Z,66.70
2017-06-03T15:09:39.439Z,64.80
2017-06-03T15:12:07.752Z,63.40
2017-06-03T15:14:35.291Z,63.30
2017-06-03T15:17:02.821Z,62.10
2017-06-03T15:19:30.389Z,62.90
2017-06-03T15:21:58.708Z,62.50
2017-06-03T15:24:26.233Z,62.50
2017-06-03T15:26:53.819Z,62.20
2017-06-03T15:29:21.368Z,62.20
2017-06-03T15:31:49.680Z,60.60
2017-06-03T15:34:17.285Z,60.60
2017-06-03T15:36:44.886Z,61.30
2017-06-03T15:39:12.450Z,59.80
2017-06-03T15:41:40.843Z,61.20
2017-06-03T15:44:08.381Z,61.00
2017-06-03T15:46:35.897Z,60.00
2017-06-03T15:49:03.502Z,61.70
2017-06-03T15:51:31.818Z,59.20
2017-06-03T15:53:59.360Z,59.20
2017-06-03T15:56:27.686Z,61.40
2017-06-03T15:58:55.996Z,60.00
2017-06-03T16:01:24.294Z,61.80
2017-06-03T16:03:51.901Z,61.80
2017-06-03T16:06:19.442Z,60.10
2017-06-03T16:08:47.000Z,60.90
2017-06-03T16:11:15.361Z,63.20
2017-06-03T16:13:42.895Z,63.20
2017-06-03T16:16:10.414Z,62.80
2017-06-03T16:18:38.025Z,59.70
2017-06-03T16:21:06.326Z,60.60
2017-06-03T16:23:33.867Z,60.60
2017-06-03T16:26:01.458Z,59.60
2017-06-03T16:28:28.996Z,62.60
2017-06-03T16:30:57.326Z,61.70
2017-06-03T16:33:24.873Z,60.80
2017-06-03T16:35:53.184Z,63.70
2017-06-03T16:38:20.768Z,62.80
2017-06-03T16:40:49.097Z,63.70
2017-06-03T16:43:16.674Z,63.70
2017-06-03T16:45:44.197Z,65.20
2017-06-03T16:48:12.492Z,66.90
2017-06-03T16:50:40.830Z,67.10
2017-06-03T16:53:08.369Z,67.10
2017-06-03T16:55:35.904Z,72.40
2017-06-03T16:58:04.245Z,77.20
2017-06-03T17:00:32.533Z,79.90
2017-06-03T17:03:00.820Z,83.10
2017-06-03T17:05:29.160Z,82.80
2017-06-03T17:07:57.478Z,84.00
2017-06-03T17:10:25.759Z,83.80
2017-06-03T17:12:54.082Z,83.80
2017-06-03T17:15:22.369Z,82.50
2017-06-03T17:17:49.906Z,82.60
2017-06-03T17:20:18.249Z,81.50
2017-06-03T17:22:45.784Z,81.50
2017-06-03T17:25:13.312Z,83.40
2017-06-03T17:27:41.647Z,82.30
2017-06-03T17:30:09.941Z,83.30
2017-06-03T17:32:38.235Z,81.20
2017-06-03T17:35:06.555Z,83.60
2017-06-03T17:37:34.156Z,83.60
2017-06-03T17:40:02.491Z,80.30
2017-06-03T17:42:30.793Z,81.60
2017-06-03T17:44:59.115Z,80.90
2017-06-03T17:47:27.479Z,81.40
2017-06-03T17:49:55.762Z,81.90
2017-06-03T17:52:23.311Z,81.90
2017-06-03T17:54:50.861Z,83.20
2017-06-03T17:57:18.441Z,81.50
2017-06-03T17:59:46.719Z,80.60
2017-06-03T18:02:14.262Z,80.50
2017-06-03T18:04:41.837Z,79.30
2017-06-03T18:07:09.373Z,80.80
2017-06-03T18:09:37.663Z,81.70
2017-06-03T18:12:06.012Z,81.70
2017-06-03T18:14:34.295Z,82.30
2017-06-03T18:17:01.831Z,82.30
2017-06-03T18:19:30.140Z,83.10
2017-06-03T18:21:58.459Z,82.90
2017-06-03T18:24:32.488Z,82.90
2017-06-03T18:27:00.787Z,83.10
2017-06-03T18:29:28.353Z,83.10
2017-06-03T18:31:56.673Z,78.20
2017-06-03T18:34:24.244Z,78.20
2017-06-03T18:36:52.562Z,76.30
2017-06-03T18:39:20.840Z,75.90
2017-06-03T18:41:49.189Z,78.50
2017-06-03T18:44:17.486Z,78.70
2017-06-03T18:46:45.792Z,79.40
2017-06-03T18:49:13.375Z,79.40
2017-06-03T18:51:41.683Z,80.60
2017-06-03T18:54:09.994Z,82.80
2017-06-03T18:56:37.591Z,82.80
2017-06-03T18:59:05.136Z,80.80
2017-06-03T19:01:33.448Z,80.00
2017-06-03T19:04:01.026Z,80.00
2017-06-03T19:06:28.577Z,81.20
2017-06-03T19:08:56.124Z,80.70
2017-06-03T19:11:24.450Z,78.20
2017-06-03T19:13:52.010Z,78.20
2017-06-03T19:16:19.594Z,77.80
2017-06-03T19:18:47.888Z,75.60
2017-06-03T19:21:16.186Z,75.30
2017-06-03T19:23:43.798Z,75.30
2017-06-03T19:26:11.320Z,75.50
2017-06-03T19:28:38.840Z,76.40
2017-06-03T19:31:07.164Z,75.20
2017-06-03T19:33:35.467Z,76.90
2017-06-03T19:36:03.004Z,76.90
2017-06-03T19:38:31.355Z,74.50
2017-06-03T19:40:59.644Z,75.40
2017-06-03T19:43:27.144Z,75.40
2017-06-03T19:45:55.475Z,74.00
2017-06-03T19:48:22.995Z,73.90
2017-06-03T19:50:51.295Z,72.20
2017-06-03T19:53:19.651Z,71.70
2017-06-03T19:55:47.209Z,71.70
2017-06-03T19:58:14.750Z,72.60
2017-06-03T20:00:43.076Z,72.70
2017-06-03T20:03:10.592Z,72.60
2017-06-03T20:05:38.127Z,72.30
2017-06-03T20:08:05.723Z,71.70
2017-06-03T20:10:34.007Z,71.80
2017-06-03T20:13:01.550Z,71.80
2017-06-03T20:15:29.864Z,72.40
2017-06-03T20:17:57.399Z,72.50
2017-06-03T20:20:25.680Z,70.40
2017-06-03T20:22:53.207Z,70.40
2017-06-03T20:25:20.721Z,71.90
2017-06-03T20:27:49.040Z,71.70
2017-06-03T20:30:17.332Z,73.00
2017-06-03T20:32:45.675Z,73.30
2017-06-03T20:35:13.968Z,72.70
2017-06-03T20:37:42.247Z,73.00
2017-06-03T20:40:10.582Z,74.80
2017-06-03T20:42:38.101Z,74.80
2017-06-03T20:45:05.609Z,76.00
2017-06-03T20:47:33.933Z,77.90
2017-06-03T20:50:02.217Z,78.40
2017-06-03T20:52:30.501Z,75.70
2017-06-03T20:54:58.055Z,75.80
2017-06-03T20:57:25.577Z,77.20
2017-06-03T20:59:53.887Z,77.60
2017-06-03T21:02:21.460Z,77.60
2017-06-03T21:04:48.989Z,77.50
2017-06-03T21:07:16.548Z,77.80
2017-06-03T21:09:44.108Z,77.20
2017-06-03T21:12:12.400Z,76.40
2017-06-03T21:14:39.974Z,76.30
2017-06-03T21:17:08.344Z,77.70
2017-06-03T21:19:35.860Z,77.70
2017-06-03T21:22:04.199Z,78.00
2017-06-03T21:24:32.485Z,78.50
2017-06-03T21:27:00.084Z,78.40
2017-06-03T21:29:27.629Z,78.90
2017-06-03T21:31:55.928Z,78.30
2017-06-03T21:34:23.504Z,78.30
2017-06-03T21:36:51.033Z,78.50
2017-06-03T21:39:18.565Z,79.60
2017-06-03T21:41:46.916Z,81.10
2017-06-03T21:44:15.229Z,83.10
2017-06-03T21:46:43.564Z,82.60
2017-06-03T21:49:11.124Z,82.60
2017-06-03T21:51:39.532Z,81.00
2017-06-03T21:54:07.074Z,81.00
2017-06-03T21:56:34.703Z,81.10
2017-06-03T21:59:03.023Z,80.60
2017-06-03T22:01:31.328Z,82.00
2017-06-03T22:03:58.891Z,81.90
2017-06-03T22:06:26.432Z,82.80
2017-06-03T22:08:53.995Z,83.20
2017-06-03T22:11:22.353Z,83.40
2017-06-03T22:13:49.881Z,83.30
2017-06-03T22:16:17.417Z,82.90
2017-06-03T22:18:44.991Z,82.90
2017-06-03T22:21:13.308Z,82.70
2017-06-03T22:23:40.921Z,82.60
2017-06-03T22:26:09.220Z,82.30
2017-06-03T22:28:36.781Z,82.20
2017-06-03T22:31:05.150Z,82.00
2017-06-03T22:33:32.680Z,82.00
2017-06-03T22:36:00.247Z,82.50
2017-06-03T22:38:27.832Z,82.30
2017-06-03T22:40:56.119Z,82.70
2017-06-03T22:43:23.653Z,82.60
2017-06-03T22:45:51.230Z,83.10
2017-06-03T22:48:18.772Z,82.60
2017-06-03T22:50:47.089Z,83.70
2017-06-03T22:53:14.657Z,83.50
2017-06-03T22:55:42.207Z,83.00
2017-06-03T22:58:09.745Z,82.90
2017-06-03T23:00:38.084Z,82.90
2017-06-03T23:03:05.694Z,82.90
2017-06-03T23:05:33.240Z,81.80
2017-06-03T23:08:00.773Z,81.80
2017-06-03T23:10:29.126Z,78.80
2017-06-03T23:12:56.673Z,78.70
2017-06-03T23:15:24.223Z,79.50
2017-06-03T23:17:51.816Z,80.80
2017-06-03T23:20:20.141Z,80.70
2017-06-03T23:22:47.679Z,80.70
2017-06-03T23:25:15.256Z,81.00
2017-06-03T23:27:42.805Z,80.80
2017-06-03T23:30:11.120Z,80.40
2017-06-03T23:32:38.669Z,80.30
2017-06-03T23:35:07.064Z,82.40
2017-06-03T23:37:34.604Z,82.40
2017-06-03T23:40:02.918Z,81.60
2017-06-03T23:42:30.506Z,81.60
2017-06-03T23:44:58.815Z,81.60
2017-06-03T23:47:27.135Z,81.60
2017-06-03T23:49:55.483Z,83.10
2017-06-03T23:52:23.766Z,82.50
2017-06-03T23:54:51.338Z,82.30
2017-06-03T23:57:19.636Z,82.50
2017-06-03T23:59:47.955Z,82.50
